D/T METAR WX W/DIR W/SPE G/SPE TEMP DEWP
19/03/19 02:56 EGUL 190256Z AUTO 00000KT 9999 OVC040 04/02 A3023 RMK AO2 SLP240 T00380023 50005 $ N (0°) 3.8°C 2.3°C
19/03/19 01:56 EGUL 190156Z AUTO 00000KT 9999 SCT044 04/02 A3023 RMK AO2 SLP240 T00370021 $ N (0°) 3.7°C 2.1°C
19/03/19 00:56 EGUL 190056Z AUTO 00000KT 9999 SCT055 05/03 A3022 RMK AO2 SLP237 T00480025 $ N (0°) 4.8°C 2.5°C
18/03/19 23:56 EGUL 182356Z AUTO 19003KT 9999 SCT060 05/02 A3022 RMK AO2 SLP237 60000 T00490023 10087 20041 401180015 52005 $ S (190°) 3.5mph 4.9°C 2.3°C
18/03/19 22:56 EGUL 182256Z AUTO 19004KT 9999 OVC060 06/03 A3021 RMK AO2 SLP234 T00550025 $ S (190°) 4.6mph 5.5°C 2.5°C
18/03/19 21:56 EGUL 182156Z AUTO 00000KT 9999 BKN065 04/02 A3021 RMK AO2 SLP234 T00410016 $ N (0°) 4.1°C 1.6°C
18/03/19 20:56 EGUL 182056Z AUTO 00000KT 9999 FEW039 05/02 A3020 RMK AO2 SLP230 60000 T00510023 52017 $ N (0°) 5.1°C 2.3°C
18/03/19 19:56 EGUL 181956Z 00000KT 9999 BKN039 06/03 A3018 RMK AO2A SLP224 T00610029 $ N (0°) 6.1°C 2.9°C
18/03/19 18:56 EGUL 181856Z 00000KT 9999 SCT035 07/03 A3017 RMK AO2A SLP220 T00730033 $ N (0°) 7.3°C 3.3°C
18/03/19 17:56 EGUL 181756Z 00000KT 9999 BKN037 BKN075 09/03 A3015 RMK AO2A SLP213 T00880030 10118 20088 52014 $ N (0°) 8.8°C 3°C
18/03/19 16:56 EGUL 181656Z AUTO 23004KT 9999 CLR 10/02 A3013 RMK AO2 SLP207 T00950021 $ SW (230°) 4.6mph 9.5°C 2.1°C
18/03/19 15:56 EGUL 181556Z AUTO 22003KT 9999 M 10/02 A3012 RMK AO2 DZB12E21DZB31E47 SLP203 P//// T00960024 $ SW (220°) 3.5mph 9.6°C 2.4°C
18/03/19 15:31 EGUL 181531Z AUTO 00000KT 9999 -DZ FEW033 SCT070 09/02 A3012 RMK AO2 DZB12E21DZB31 SLP203 $ -DZ N (0°) 9°C 2°C
18/03/19 14:56 EGUL 181456Z 32012KT 9999 BKN055 12/02 A3011 RMK AO2A SLP200 T01180023 50002 $ NW (320°) 13.8mph 11.8°C 2.3°C
18/03/19 13:56 EGUL 181356Z COR 30010KT 9999 SCT025 11/03 A3010 RMK AO2A SLP196 T01100028 $ COR 1419 WNW (300°) 11.5mph 11°C 2.8°C
18/03/19 13:56 EGUL 181356Z 30010KT 9999 FEW040 11/03 A3010 RMK AO2A SLP196 T01100028 $ WNW (300°) 11.5mph 11°C 2.8°C
18/03/19 12:56 EGUL 181256Z 30016G21KT 9999 FEW025 OVC040 10/03 A3011 RMK AO2A SLP200 T01010031 $ WNW (300°) 18.4mph 24.2mph 10.1°C 3.1°C
18/03/19 12:14 EGUL 181214Z 29012G17KT 9999 FEW025 BKN040 BKN100 11/03 A3010 RMK SLP196 $ WNW (290°) 13.8mph 19.6mph 11°C 3°C
18/03/19 11:26 EGUL 181126Z 29009KT 9999 BKN025 BKN100 09/03 A3010 RMK AO2A SLP196 $ WNW (290°) 10.4mph 9°C 3°C
18/03/19 11:11 EGUL 181111Z AUTO 30009KT 9999 SCT023 BKN039 09/03 A3010 RMK AO2 SLP196 $ WNW (300°) 10.4mph 9°C 3°C
18/03/19 10:32 EGUL 181032Z 27011KT 9999 BKN021 BKN027 09/04 A3009 W (270°) 12.7mph 9°C 4°C
18/03/19 10:11 EGUL 181011Z AUTO 31010KT 9999 SCT022 BKN027 08/04 A3009 RMK AO2 BKN V SCT CIG 018 RWY06 SLP193 $ NW (310°) 11.5mph 8°C 4°C
18/03/19 09:35 EGUL 180935Z 30009KT 9999 FEW046 08/03 A3008 RMK SLP190 $ WNW (300°) 10.4mph 8°C 3°C
18/03/19 08:56 EGUL 180856Z AUTO 28009KT 9999 CLR 07/03 A3007 RMK AO2 SLP186 T00660034 52021 $ W (280°) 10.4mph 6.6°C 3.4°C
18/03/19 07:56 EGUL 180756Z AUTO 28007KT 9999 CLR 05/03 A3005 RMK AO2 SLP180 T00480027 $ W (280°) 8.1mph 4.8°C 2.7°C
18/03/19 06:56 EGUL 180656Z AUTO 29006KT 9999 CLR 04/02 A3003 RMK AO2 SLP173 T00360016 $ WNW (290°) 6.9mph 3.6°C 1.6°C
18/03/19 05:56 EGUL 180556Z AUTO 28007KT 9999 CLR 03/01 A3001 RMK AO2 SLP166 T00250007 10038 20015 52017 $ W (280°) 8.1mph 2.5°C 0.7°C
18/03/19 04:56 EGUL 180456Z AUTO 29007KT 9999 FEW060 04/02 A2999 RMK AO2 SLP159 T00350015 $ WNW (290°) 8.1mph 3.5°C 1.5°C
18/03/19 03:56 EGUL 180356Z AUTO 26004KT 9999 FEW047 BKN065 03/02 A2998 RMK AO2 SLP156 T00340018 $ W (260°) 4.6mph 3.4°C 1.8°C
18/03/19 02:56 EGUL 180256Z AUTO 28006KT 9999 OVC065 03/02 A2996 RMK AO2 SLP149 T00310015 52022 $ W (280°) 6.9mph 3.1°C 1.5°C
18/03/19 01:56 EGUL 180156Z AUTO 27004KT 9999 BKN065 02/00 A2994 RMK AO2 SLP142 T00220004 W (270°) 4.6mph 2.2°C 0.4°C
18/03/19 00:56 EGUL 180056Z AUTO 26005KT 9999 CLR 02/00 A2992 RMK AO2 SLP136 T00191002 W (260°) 5.8mph 1.9°C -0.2°C
17/03/19 23:56 EGUL 172356Z AUTO 28006KT 9999 FEW027 03/01 A2989 RMK AO2 SLP125 T00260005 10072 20026 400970026 52027 W (280°) 6.9mph 2.6°C 0.5°C
17/03/19 22:56 EGUL 172256Z AUTO 29008KT 9999 CLR 04/01 A2987 RMK AO2 SLP118 T00430013 WNW (290°) 9.2mph 4.3°C 1.3°C
17/03/19 21:56 EGUL 172156Z AUTO 28008KT 9999 FEW037 05/01 A2984 RMK AO2 SLP108 T00450012 W (280°) 9.2mph 4.5°C 1.2°C
17/03/19 20:56 EGUL 172056Z AUTO 27009KT 9999 SCT046 05/01 A2981 RMK AO2 SLP098 T00510012 52031 W (270°) 10.4mph 5.1°C 1.2°C
17/03/19 19:56 EGUL 171956Z AUTO 26008KT 9999 OVC044 06/01 A2979 RMK AO2 SLP091 T00550010 W (260°) 9.2mph 5.5°C 1°C
17/03/19 18:56 EGUL 171856Z AUTO 25011KT 9999 FEW050 06/01 A2975 RMK AO2 SLP078 T00560008 WSW (250°) 12.7mph 5.6°C 0.8°C
17/03/19 17:56 EGUL 171756Z AUTO 26010KT 9999 SCT044 BKN060 07/01 A2972 RMK AO2 SLP068 60002 T00720013 10097 20051 52022 W (260°) 11.5mph 7.2°C 1.3°C
17/03/19 16:56 EGUL 171656Z AUTO 26012KT 9999 CLR 07/02 A2970 RMK AO2 SLP061 T00740019 W (260°) 13.8mph 7.4°C 1.9°C
17/03/19 15:56 EGUL 171556Z AUTO 25012KT 9999 CLR 06/02 A2968 RMK AO2 PK WND 26026/07 RAE11DZB11E18 SLP054 P0001 T00580017 WSW (250°) 13.8mph 5.8°C 1.7°C
17/03/19 15:18 EGUL 171518Z AUTO 27018G26KT 9999 FEW028 SCT042 06/00 A2967 RMK AO2 RAE11DZB11E18 SLP051 W (270°) 20.7mph 29.9mph 6°C 0°C
17/03/19 13:56 EGUL 171356Z AUTO 27020G24KT 9999 SCT048 09/M01 A2963 RMK AO2 RAB38E54 SLP037 P0000 T00901014 W (270°) 23.0mph 27.6mph 9°C -1.4°C
17/03/19 13:38 EGUL 171338Z AUTO 28015G23KT 9999 -RA FEW047 FEW075 09/M01 A2963 RMK AO2 RAB38 SLP037 -RA W (280°) 17.3mph 26.5mph 9°C -1°C
17/03/19 12:56 EGUL 171256Z AUTO 28014KT 9999 SCT075 08/M01 A2963 RMK AO2 PK WND 27027/38 RAB38E48 SLP037 P0000 T00791006 W (280°) 16.1mph 7.9°C -0.6°C
17/03/19 12:48 EGUL 171248Z AUTO 27014G27KT 9999 FEW070 SCT080 08/M01 A2963 RMK AO2 RAB38E48 SLP037 W (270°) 16.1mph 31.1mph 8°C -1°C
17/03/19 11:56 EGUL 171156Z AUTO 27016G22KT 9999 FEW040 SCT055 08/00 A2962 RMK AO2 PK WND 25027/55 SLP034 70007 T00751005 10090 20039 52021 W (270°) 18.4mph 25.3mph 7.5°C -0.5°C
17/03/19 10:56 EGUL 171056Z AUTO 28018KT 9999 FEW032 BKN047 07/00 A2960 RMK AO2 PK WND 27026/17 SLP027 T00711001 W (280°) 20.7mph 7.1°C -0.1°C
17/03/19 09:56 EGUL 170956Z AUTO 27018G21KT 9999 SCT028 BKN035 07/01 A2958 RMK AO2 PK WND 30026/31 SLP020 T00680009 W (270°) 20.7mph 24.2mph 6.8°C 0.9°C
17/03/19 09:26 EGUL 170926Z AUTO 27016G21KT 9999 SCT025 BKN030 06/01 A2957 RMK AO2 SLP017 W (270°) 18.4mph 24.2mph 6°C 1°C
17/03/19 09:11 EGUL 170911Z AUTO 27013KT 9999 BKN025 06/01 A2957 RMK AO2 BKN V SCT SLP017 W (270°) 15.0mph 6°C 1°C
17/03/19 07:56 EGUL 170756Z AUTO 27014KT 9999 CLR 05/02 A2953 RMK AO2 SLP003 T00520015 W (270°) 16.1mph 5.2°C 1.5°C
17/03/19 06:56 EGUL 170656Z AUTO 26009KT 9999 SCT036 SCT043 04/02 A2950 RMK AO2 SLP993 T00430017 W (260°) 10.4mph 4.3°C 1.7°C
17/03/19 05:56 EGUL 170556Z AUTO 27012KT 9999 SCT049 05/01 A2947 RMK AO2 SLP983 T00460013 10062 20045 52027 W (270°) 13.8mph 4.6°C 1.3°C
17/03/19 05:41 EGUL 170541Z AUTO 27012KT 9999 FEW027 SCT040 05/01 A2946 RMK AO2 SLP980 W (270°) 13.8mph 5°C 1°C
17/03/19 05:11 EGUL 170511Z AUTO 26011KT 9999 SCT022 OVC029 05/02 A2945 RMK AO2 CIG 022V029 SLP976 W (260°) 12.7mph 5°C 2°C
17/03/19 04:41 EGUL 170441Z AUTO 27012KT 9999 BKN027 05/02 A2943 RMK AO2 SLP969 W (270°) 13.8mph 5°C 2°C
17/03/19 03:56 EGUL 170356Z AUTO 26011KT 9999 SCT028 BKN049 BKN070 05/03 A2941 RMK AO2 SLP963 T00530025 W (260°) 12.7mph 5.3°C 2.5°C
17/03/19 03:41 EGUL 170341Z AUTO 26013KT 9999 BKN028 OVC046 06/03 A2941 RMK AO2 SLP963 W (260°) 15.0mph 6°C 3°C
17/03/19 03:11 EGUL 170311Z AUTO 26012KT 9999 SCT022 SCT029 OVC037 06/03 A2940 RMK AO2 SLP959 W (260°) 13.8mph 6°C 3°C
17/03/19 01:56 EGUL 170156Z AUTO 25009KT 9999 SCT043 OVC050 06/03 A2938 RMK AO2 SLP952 T00560033 WSW (250°) 10.4mph 5.6°C 3.3°C
17/03/19 00:56 EGUL 170056Z AUTO 27006KT 9999 FEW100 05/03 A2936 RMK AO2 SLP946 T00540031 W (270°) 6.9mph 5.4°C 3.1°C
16/03/19 23:56 EGUL 162356Z AUTO 27009KT 9999 BKN080 06/03 A2934 RMK AO2 RAE20DZB20E21 SLP939 P0001 60007 T00610034 10114 20061 401360061 52019 W (270°) 10.4mph 6.1°C 3.4°C
16/03/19 23:21 EGUL 162321Z AUTO 27010KT 9999 SCT031 06/04 A2933 RMK AO2 RAE20DZB20E21 SLP935 W (270°) 11.5mph 6°C 4°C
16/03/19 22:46 EGUL 162246Z AUTO 29012G19KT 9999 -RA FEW012 SCT025 BKN033 06/04 A2933 RMK AO2 SLP935 -RA WNW (290°) 13.8mph 21.9mph 6°C 4°C
16/03/19 22:16 EGUL 162216Z AUTO 29024G32KT 9999 -RA BKN019 BKN026 OVC031 09/07 A2932 RMK AO2 WSHFT 02 CIG 018 RWY06 SLP932 -RA WNW (290°) 27.6mph 36.8mph 9°C 7°C
16/03/19 21:37 EGUL 162137Z AUTO 24018G27KT 9999 -RA FEW017 SCT025 SCT043 BKN055 10/07 A2930 RMK AO2 RAE36RAB37 SLP925 -RA WSW (240°) 20.7mph 31.1mph 10°C 7°C
16/03/19 20:56 EGUL 162056Z AUTO 22018G29KT 9999 -RA BKN017 OVC023 10/07 A2929 RMK AO2 PK WND 20032/08 RAB00E39RAB51 CIG 016 RWY06 SLP922 P0000 60000 T01010073 57018 -RA SW (220°) 20.7mph 33.4mph 10.1°C 7.3°C
16/03/19 20:39 EGUL 162039Z AUTO 21021G29KT 9999 BKN017 BKN022 OVC028 10/07 A2929 RMK AO2 RAB00E39 BKN017 V OVC CIG 016 RWY06 SLP922 SSW (210°) 24.2mph 33.4mph 10°C 7°C
16/03/19 20:00 EGUL 162000Z AUTO 22021G28KT 9999 -RA OVC019 10/07 A2930 RMK AO2 RAB00 CIG 018 RWY06 SLP925 -RA SW (220°) 24.2mph 32.2mph 10°C 7°C
16/03/19 19:23 EGUL 161923Z AUTO 21021G33KT 9999 OVC020 11/07 A2931 RMK AO2 RAB12E23 SLP929 SSW (210°) 24.2mph 38.0mph 11°C 7°C
16/03/19 19:12 EGUL 161912Z AUTO 22026G36KT 9999 -RA OVC020 11/07 A2931 RMK AO2 RAB12 SLP929 -RA SW (220°) 29.9mph 41.4mph 11°C 7°C
16/03/19 17:56 EGUL 161756Z AUTO 22028G32KT 9999 OVC024 11/06 A2934 RMK AO2 PK WND 22039/03 SLP939 T01140061 10136 20114 57014 SW (220°) 32.2mph 36.8mph 11.4°C 6.1°C
16/03/19 16:56 EGUL 161656Z AUTO 22024G37KT 9999 OVC028 12/06 A2935 RMK AO2 PK WND 23037/46 SLP942 T01190060 SW (220°) 27.6mph 42.6mph 11.9°C 6°C
16/03/19 16:41 EGUL 161641Z AUTO 22026G33KT 9999 OVC029 12/06 A2935 RMK AO2 CIG 028 RWY06 SLP942 SW (220°) 29.9mph 38.0mph 12°C 6°C
16/03/19 15:56 EGUL 161556Z AUTO 22022G34KT 9999 OVC030 12/06 A2937 RMK AO2 PK WND 23037/09 SLP949 T01220058 SW (220°) 25.3mph 39.1mph 12.2°C 5.8°C
16/03/19 14:56 EGUL 161456Z AUTO 22029G36KT 9999 BKN035 13/06 A2938 RMK AO2 PK WND 23037/39 SLP952 T01300059 57035 SW (220°) 33.4mph 41.4mph 13°C 5.9°C
16/03/19 13:56 EGUL 161356Z AUTO 23020G39KT 9999 BKN035 13/06 A2943 RMK AO2 PK WND 23039/49 SLP969 T01310062 SW (230°) 23.0mph 44.9mph 13.1°C 6.2°C
16/03/19 12:56 EGUL 161256Z AUTO 24025G41KT 9999 BKN035 13/06 A2946 RMK AO2 PK WND 23044/1156 SLP979 T01290058 WSW (240°) 28.8mph 47.2mph 12.9°C 5.8°C
16/03/19 11:56 EGUL 161156Z AUTO 24026G41KT 9999 BKN033 12/06 A2948 RMK AO2 PK WND 22041/48 SLP986 60001 70008 T01240060 10124 20108 57017 WSW (240°) 29.9mph 47.2mph 12.4°C 6°C
16/03/19 10:56 EGUL 161056Z AUTO 24023G34KT 9999 BKN030 BKN035 12/06 A2950 RMK AO2 PK WND 24039/38 SLP993 T01210064 WSW (240°) 26.5mph 39.1mph 12.1°C 6.4°C
16/03/19 09:56 EGUL 160956Z AUTO 24027G38KT 9999 OVC026 12/07 A2952 RMK AO2 PK WND 24041/24 SLP000 T01160065 WSW (240°) 31.1mph 43.7mph 11.6°C 6.5°C
16/03/19 08:56 EGUL 160856Z AUTO 24024G34KT 9999 OVC026 12/07 A2953 RMK AO2 PK WND 23034/33 SLP003 60001 T01150070 57019 WSW (240°) 27.6mph 39.1mph 11.5°C 7°C
16/03/19 07:56 EGUL 160756Z AUTO 23024G38KT 9999 BKN029 11/07 A2955 RMK AO2 PK WND 24038/51 SLP010 T01130072 SW (230°) 27.6mph 43.7mph 11.3°C 7.2°C
16/03/19 07:41 EGUL 160741Z AUTO 23023G30KT 9999 SCT022 11/07 A2955 RMK AO2 SLP010 SW (230°) 26.5mph 34.5mph 11°C 7°C
16/03/19 06:56 EGUL 160656Z AUTO 23024G32KT 9999 FEW032 SCT100 11/08 A2957 RMK AO2 PK WND 24032/49 SLP017 P0001 T01090076 SW (230°) 27.6mph 36.8mph 10.9°C 7.6°C
16/03/19 05:56 EGUL 160556Z AUTO 23026G30KT 9999 FEW019 SCT060 BKN100 11/08 A2959 RMK AO2 PK WND 24032/42 RAE06 SLP023 P0000 60007 T01080078 10108 20080 57021 SW (230°) 29.9mph 34.5mph 10.8°C 7.8°C
16/03/19 05:06 EGUL 160506Z AUTO 24021G27KT 9999 FEW020 11/08 A2961 RMK AO2 RAE06 SLP030 WSW (240°) 24.2mph 31.1mph 11°C 8°C
16/03/19 04:42 EGUL 160442Z AUTO 24021G28KT 9999 BKN019 11/09 A2962 RMK AO2 RAE0357DZB0357E0359RAB0359E41DZB41E42 SLP034 WSW (240°) 24.2mph 32.2mph 11°C 9°C
16/03/19 03:56 EGUL 160356Z AUTO 23020G27KT 9999 -RA OVC013 10/09 A2963 RMK AO2 CIG 011 RWY06 SLP037 P0001 T01040092 -RA SW (230°) 23.0mph 31.1mph 10.4°C 9.2°C
16/03/19 02:56 EGUL 160256Z AUTO 21010KT 9999 -RA OVC008 09/08 A2965 RMK AO2 PRESFR SLP044 P0004 60006 T00860075 57037 -RA SSW (210°) 11.5mph 8.6°C 7.5°C
16/03/19 02:26 EGUL 160226Z AUTO 16005KT 9999 -RA BKN009 BKN013 OVC019 08/07 A2968 RMK AO2 CIG 008 RWY06 SLP054 -RA SSE (160°) 5.8mph 8°C 7°C
16/03/19 02:11 EGUL 160211Z AUTO 17004KT 9999 -RA SCT008 BKN015 OVC019 08/07 A2969 RMK AO2 CIG 009 RWY06 SLP057 -RA S (170°) 4.6mph 8°C 7°C
16/03/19 01:41 EGUL 160141Z AUTO 19007KT 9999 -RA SCT021 OVC028 08/06 A2971 RMK AO2 CIG 023 RWY06 SLP064 -RA S (190°) 8.1mph 8°C 6°C
16/03/19 00:56 EGUL 160056Z AUTO 23011KT 9999 -RA CLR 09/06 A2974 RMK AO2 DZB19E20RAB20 SLP074 P0000 T00850056 -RA SW (230°) 12.7mph 8.5°C 5.6°C
16/03/19 00:19 EGUL 160019Z AUTO 23009KT 9999 -DZ BKN050 09/05 A2975 RMK AO2 DZB19 SLP078 -DZ SW (230°) 10.4mph 9°C 5°C
15/03/19 22:56 EGUL 152256Z AUTO 24009KT 9999 BKN080 09/04 A2978 RMK AO2 SLP088 T00880044 WSW (240°) 10.4mph 8.8°C 4.4°C
15/03/19 21:56 EGUL 152156Z AUTO 26007KT 9999 FEW090 09/03 A2978 RMK AO2 SLP088 T00910031 W (260°) 8.1mph 9.1°C 3.1°C
15/03/19 20:56 EGUL 152056Z AUTO 26009KT 9999 SCT140 10/03 A2977 RMK AO2 SLP084 T00970030 52019 W (260°) 10.4mph 9.7°C 3°C
15/03/19 19:56 EGUL 151956Z AUTO 28012KT 9999 FEW041 SCT050 BKN160 10/03 A2975 RMK AO2 SLP078 T00980029 W (280°) 13.8mph 9.8°C 2.9°C
15/03/19 18:56 EGUL 151856Z AUTO 28008KT 9999 FEW050 09/02 A2974 RMK AO2 SLP074 T00900023 W (280°) 9.2mph 9°C 2.3°C
15/03/19 17:56 EGUL 151756Z AUTO 29015G24KT 9999 CLR 11/02 A2971 RMK AO2 SLP064 T01070018 10153 20107 52022 WNW (290°) 17.3mph 27.6mph 10.7°C 1.8°C
15/03/19 16:56 EGUL 151656Z AUTO 29018G25KT 9999 CLR 12/02 A2969 RMK AO2 PK WND 28032/01 SLP057 T01170024 WNW (290°) 20.7mph 28.8mph 11.7°C 2.4°C
15/03/19 15:56 EGUL 151556Z AUTO 28021G27KT 9999 SCT047 13/02 A2966 RMK AO2 SLP047 T01290024 W (280°) 24.2mph 31.1mph 12.9°C 2.4°C
15/03/19 14:56 EGUL 151456Z AUTO 29017G25KT 9999 SCT047 SCT055 14/04 A2965 RMK AO2 PK WND 30031/12 SLP044 T01350036 52017 WNW (290°) 19.6mph 28.8mph 13.5°C 3.6°C
15/03/19 13:56 EGUL 151356Z 29020G28KT 9999 SCT048 BKN070 14/05 A2963 RMK PK WND 28034/02 SLP037 T01370046 WNW (290°) 23.0mph 32.2mph 13.7°C 4.6°C
15/03/19 12:56 EGUL 151256Z AUTO 28027G31KT 9999 FEW041 FEW070 15/05 A2961 RMK AO2 PK WND 27040/17 SLP030 T01450050 $ W (280°) 31.1mph 35.7mph 14.5°C 5°C
15/03/19 11:56 EGUL 151156Z AUTO 29019G30KT 9999 FEW030 BKN075 14/08 A2960 RMK AO2 PK WND 28035/1057 SLP027 60000 70004 T01410083 10146 20116 52017 $ WNW (290°) 21.9mph 34.5mph 14.1°C 8.3°C
15/03/19 10:56 EGUL 151056Z AUTO 27028G34KT 9999 BKN027 BKN034 BKN044 14/09 A2957 RMK AO2 DZB0957E01RAB01E18DZB28E37 CIG 027V035 BKN027 V SCT SLP017 P0000 T01420088 $ W (270°) 32.2mph 39.1mph 14.2°C 8.8°C
15/03/19 10:15 EGUL 151015Z 27018G27KT 9999 BKN026 OVC033 13/10 A2957 RMK AO2A DZB0957E01 SLP017 $ W (270°) 20.7mph 31.1mph 13°C 10°C
15/03/19 09:16 EGUL 150916Z 26020G29KT 9999 OVC026 13/09 A2955 RMK AO2A DZB0856E06RAB06E16 SLP010 $ W (260°) 23.0mph 33.4mph 13°C 9°C
15/03/19 08:11 EGUL 150811Z AUTO 25017KT 9999 BKN028 BKN034 12/09 A2955 RMK AO2 SLP010 $ WSW (250°) 19.6mph 12°C 9°C
15/03/19 07:11 EGUL 150711Z AUTO 24017KT 9999 BKN028 BKN033 12/09 A2953 RMK AO2 SLP003 $ WSW (240°) 19.6mph 12°C 9°C
15/03/19 06:41 EGUL 150641Z AUTO 24019KT 9999 BKN030 BKN036 12/09 A2953 RMK AO2 SLP003 $ WSW (240°) 21.9mph 12°C 9°C
15/03/19 05:56 EGUL 150556Z AUTO 24018G25KT 9999 BKN026 OVC033 12/09 A2953 RMK AO2 PK WND 24026/29 BKN V OVC SLP003 P0001 60004 T01170089 10117 20080 56013 $ WSW (240°) 20.7mph 28.8mph 11.7°C 8.9°C
15/03/19 04:56 EGUL 150456Z AUTO 24017G24KT 9999 BKN028 11/09 A2953 RMK AO2 RAE24DZB24E35 CIG 027 RWY06 SLP003 P0000 T01120091 $ WSW (240°) 19.6mph 27.6mph 11.2°C 9.1°C
15/03/19 04:35 EGUL 150435Z AUTO 24017G22KT 9999 BKN028 11/09 A2954 RMK AO2 RAE24DZB24E35 SLP006 $ WSW (240°) 19.6mph 25.3mph 11°C 9°C
15/03/19 03:56 EGUL 150356Z AUTO 24016KT 9999 -RA OVC026 10/09 A2954 RMK AO2 DZB52E53RAB53 SLP006 P0000 T01040090 $ -RA WSW (240°) 18.4mph 10.4°C 9°C
15/03/19 03:26 EGUL 150326Z AUTO 23015KT 9999 SCT007 BKN024 10/08 A2956 RMK AO2 CIG 007V024 CIG 023 RWY06 SLP013 $ SW (230°) 17.3mph 10°C 8°C
15/03/19 02:56 EGUL 150256Z AUTO 23013KT 9999 OVC007 09/08 A2957 RMK AO2 RAE19DZB19E30 SLP017 P0001 60003 T00890075 57038 $ SW (230°) 15.0mph 8.9°C 7.5°C
15/03/19 02:45 EGUL 150245Z AUTO 22012KT 9999 OVC007 08/07 A2957 RMK AO2 RAE19DZB19E30 OVC V BKN SLP017 $ SW (220°) 13.8mph 8°C 7°C
15/03/19 02:11 EGUL 150211Z AUTO 20007KT 9999 -RA FEW014 OVC021 08/06 A2959 RMK AO2 CIG 020 RWY06 PRESFR SLP023 $ -RA SSW (200°) 8.1mph 8°C 6°C
15/03/19 00:59 EGUL 150059Z AUTO 22011KT 9999 -RA BKN048 08/05 A2964 RMK AO2 DZE56RAB59 SLP040 $ -RA SW (220°) 12.7mph 8°C 5°C
14/03/19 23:56 EGUL 142356Z AUTO 23009KT 9999 -RA SCT027 08/04 A2968 RMK AO2 RAB23 SLP054 P0000 60000 T00840040 10097 20078 401360066 58004 $ -RA SW (230°) 10.4mph 8.4°C 4°C
14/03/19 22:56 EGUL 142256Z AUTO 25011KT 9999 CLR 09/03 A2969 RMK AO2 SLP057 T00880032 $ WSW (250°) 12.7mph 8.8°C 3.2°C
14/03/19 20:56 EGUL 142056Z AUTO 26013KT 9999 SCT130 SCT150 08/03 A2969 RMK AO2 SLP057 T00810025 50013 $ W (260°) 15.0mph 8.1°C 2.5°C
14/03/19 19:56 EGUL 141956Z AUTO 28013KT 9999 CLR 09/02 A2969 RMK AO2 SLP057 T00850019 $ W (280°) 15.0mph 8.5°C 1.9°C
14/03/19 18:56 EGUL 141856Z AUTO 28013KT 9999 CLR 09/02 A2968 RMK AO2 SLP054 T00850016 $ W (280°) 15.0mph 8.5°C 1.6°C
14/03/19 17:56 EGUL 141756Z COR 29018G24KT 9999 CLR 10/02 A2965 RMK AO2A PK WND 29027/14 SLP044 T00970016 10136 20097 52033 $ COR 1833 WNW (290°) 20.7mph 27.6mph 9.7°C 1.6°C
14/03/19 17:56 EGUL 141756Z AUTO 29018G24KT 9999 CLR 10/02 A2965 RMK AO2 PK WND 29027/14 SLP044 60000 T00970016 10136 20097 52033 $ WNW (290°) 20.7mph 27.6mph 9.7°C 1.6°C
14/03/19 16:56 EGUL 141656Z AUTO 30017G31KT 9999 CLR 11/02 A2961 RMK AO2 PK WND 29033/22 SLP030 T01090022 $ WNW (300°) 19.6mph 35.7mph 10.9°C 2.2°C
14/03/19 15:56 EGUL 141556Z AUTO 30023G33KT 9999 CLR 12/02 A2959 RMK AO2 PK WND 30037/31 SLP023 T01180017 $ WNW (300°) 26.5mph 38.0mph 11.8°C 1.7°C
14/03/19 14:56 EGUL 141456Z COR 30024G32KT 9999 CLR 12/02 A2955 RMK AO2A PK WND 29040/18 SLP010 T01240017 52027 $ COR 1513 WNW (300°) 27.6mph 36.8mph 12.4°C 1.7°C
14/03/19 13:56 EGUL 141356Z AUTO 30025G37KT 9999 FEW050 SCT070 13/01 A2952 RMK AO2 PK WND 28040/23 SLP000 T01280008 $ WNW (300°) 28.8mph 42.6mph 12.8°C 0.8°C
14/03/19 12:56 EGUL 141256Z AUTO 30024G36KT 9999 FEW045 SCT050 13/03 A2949 RMK AO2 PK WND 28040/31 DZB18E24RAB24E36 SLP990 P0000 T01250026 $ WNW (300°) 27.6mph 41.4mph 12.5°C 2.6°C
14/03/19 12:36 EGUL 141236Z AUTO 30020G31KT 9999 FEW028 BKN044 12/04 A2949 RMK AO2 DZB18E24RAB24E36 SLPNO $ WNW (300°) 23.0mph 35.7mph 12°C 4°C
14/03/19 12:18 EGUL 141218Z 29021G30KT 9999 -DZ FEW041 SCT049 SCT060 13/03 A2948 RMK AO2A DZB18 SLPNO $ -DZ WNW (290°) 24.2mph 34.5mph 13°C 3°C
14/03/19 10:56 EGUL 141056Z 29022G29KT 9999 SCT040 13/06 A2945 RMK AO2A PK WND 29039/37 SLPNO T01300057 RWY06 $ WNW (290°) 25.3mph 33.4mph 13°C 5.7°C
14/03/19 09:56 EGUL 140956Z 28022G32KT 9999 SCT036 10/05 A2942 RMK AO2A PK WND 27042/24 DZB01E27 SLPNO P0000 T01040054 $ W (280°) 25.3mph 36.8mph 10.4°C 5.4°C
14/03/19 09:27 EGUL 140927Z 27032G41KT 9999 SCT023 BKN036 11/07 A2942 RMK AO2A DZB01E27 SLPNO $ W (270°) 36.8mph 47.2mph 11°C 7°C
14/03/19 09:01 EGUL 140901Z 26022G31KT 9999 -DZ BKN023 11/07 A2941 RMK AO2A DZB01 SLPNO $ -DZ W (260°) 25.3mph 35.7mph 11°C 7°C
14/03/19 08:41 EGUL 140841Z 26022G31KT 9999 BKN023 BKN049 10/07 A2942 RMK AO2A CIG 023V049 SLPNO $ W (260°) 25.3mph 35.7mph 10°C 7°C
14/03/19 08:11 EGUL 140811Z AUTO 25023G30KT 9999 SCT023 10/06 A2942 RMK AO2 SLPNO $ WSW (250°) 26.5mph 34.5mph 10°C 6°C
14/03/19 06:56 EGUL 140656Z 24020G30KT 9999 BKN021 08/06 A2946 RMK AO2A PK WND 22030/44 BKN V OVC SLPNO T00830056 $ WSW (240°) 23.0mph 34.5mph 8.3°C 5.6°C